Time;durP1;ratioP1;P1;durP2;ratioP2;P2;SDS_P1;SDS_P2;PMS_P1;PMS_P2;Temp;Humidity;BMP_temperature;BMP_pressure;BME280_temperature;BME280_humidity;BME280_pressure;Samples;Min_cycle;Max_cycle;Signal;HPM_P1;HPM_P2
2022/09/28 00:01:50;;;;;;;5.35;4.32;;;7.70;99.90;;;;;;5072593;28;20401;-66
2022/09/28 00:04:16;;;;;;;6.65;4.20;;;7.70;99.90;;;;;;5073595;28;20048;-66
2022/09/28 00:06:42;;;;;;;5.68;3.90;;;7.60;99.90;;;;;;5073412;28;20040;-66
2022/09/28 00:09:08;;;;;;;6.03;4.25;;;7.70;99.90;;;;;;5073599;28;20063;-66
2022/09/28 00:11:34;;;;;;;6.35;3.78;;;7.70;99.90;;;;;;5073705;28;20057;-66
2022/09/28 00:14:02;;;;;;;4.68;3.78;;;7.70;99.90;;;;;;5073472;28;20056;-66
2022/09/28 00:16:33;;;;;;;5.70;4.28;;;7.60;99.90;;;;;;5073489;28;20048;-66
2022/09/28 00:19:00;;;;;;;6.80;4.45;;;7.60;99.90;;;;;;5073521;28;20584;-66
2022/09/28 00:21:30;;;;;;;6.60;4.20;;;7.70;99.90;;;;;;5073114;28;20404;-66
2022/09/28 00:24:14;;;;;;;6.32;4.50;;;7.70;99.90;;;;;;5073440;28;20097;-66
2022/09/28 00:26:46;;;;;;;7.82;4.63;;;7.70;99.90;;;;;;5073400;28;20378;-66
2022/09/28 00:29:25;;;;;;;6.40;4.50;;;7.70;99.90;;;;;;5073549;28;20484;-66
2022/09/28 00:31:52;;;;;;;7.32;4.35;;;7.70;99.90;;;;;;5074010;28;20052;-66
2022/09/28 00:34:18;;;;;;;6.68;4.50;;;7.70;99.90;;;;;;5073767;28;20081;-66
2022/09/28 00:36:45;;;;;;;7.13;4.45;;;7.70;99.90;;;;;;5073249;28;20049;-65
2022/09/28 00:39:13;;;;;;;6.43;4.72;;;7.70;99.90;;;;;;5073127;28;20049;-66
2022/09/28 00:41:39;;;;;;;9.02;5.03;;;7.80;99.90;;;;;;5073715;28;20080;-66
2022/09/28 00:44:23;;;;;;;6.07;4.60;;;7.80;99.90;;;;;;5073112;28;20495;-66
2022/09/28 00:47:01;;;;;;;8.05;5.15;;;7.80;99.90;;;;;;5073140;28;20071;-66
2022/09/28 00:49:37;;;;;;;8.98;5.00;;;7.80;99.90;;;;;;5072098;28;20057;-66
2022/09/28 00:52:05;;;;;;;8.40;5.22;;;7.80;99.90;;;;;;5072430;28;20385;-66
2022/09/28 00:54:31;;;;;;;7.32;5.18;;;7.80;99.90;;;;;;5072322;28;20048;-66
2022/09/28 00:56:58;;;;;;;7.40;5.07;;;7.80;99.90;;;;;;5073033;28;20045;-66
2022/09/28 00:59:25;;;;;;;7.78;5.03;;;7.80;99.90;;;;;;5072960;28;20091;-66
2022/09/28 01:01:50;;;;;;;7.25;5.18;;;7.70;99.90;;;;;;5072879;28;20044;-66
2022/09/28 01:04:17;;;;;;;6.95;4.85;;;7.70;99.90;;;;;;5072959;28;20048;-66
2022/09/28 01:06:44;;;;;;;8.70;5.60;;;7.70;99.90;;;;;;5073461;28;20052;-66
2022/09/28 01:09:12;;;;;;;6.97;5.00;;;7.70;99.90;;;;;;5072987;28;20044;-66
2022/09/28 01:11:38;;;;;;;8.48;5.82;;;7.70;99.90;;;;;;5073938;28;20128;-66
2022/09/28 01:14:07;;;;;;;7.20;4.93;;;7.70;99.90;;;;;;5072932;28;20140;-66
2022/09/28 01:16:36;;;;;;;8.20;5.40;;;7.60;99.90;;;;;;5072871;28;20123;-66
2022/09/28 01:19:14;;;;;;;8.18;5.10;;;7.50;99.90;;;;;;5075291;28;20488;-66
2022/09/28 01:22:20;;;;;;;6.75;4.85;;;7.50;99.90;;;;;;5077264;28;20098;-66
2022/09/28 01:24:51;;;;;;;7.93;5.10;;;7.50;99.90;;;;;;5077194;28;20056;-66
2022/09/28 01:27:30;;;;;;;7.75;5.03;;;7.40;99.90;;;;;;5076625;28;20048;-66
2022/09/28 01:30:07;;;;;;;7.22;4.80;;;7.40;99.90;;;;;;5077350;28;20213;-66
2022/09/28 01:32:41;;;;;;;9.80;5.47;;;7.40;99.90;;;;;;5077014;28;20048;-66
2022/09/28 01:35:14;;;;;;;7.90;5.53;;;7.50;99.90;;;;;;5076417;28;20048;-66
2022/09/28 01:37:51;;;;;;;9.88;5.00;;;7.30;99.90;;;;;;5076408;28;20098;-66
2022/09/28 01:40:19;;;;;;;7.35;4.57;;;7.60;99.90;;;;;;5077125;28;20048;-66
2022/09/28 01:42:49;;;;;;;7.57;5.38;;;7.60;99.90;;;;;;5076312;28;20045;-66
2022/09/28 01:45:27;;;;;;;7.50;4.53;;;7.60;99.90;;;;;;5076328;28;20048;-66
2022/09/28 01:47:58;;;;;;;6.72;4.28;;;7.50;99.90;;;;;;5076226;28;20040;-66
2022/09/28 01:50:26;;;;;;;7.45;4.38;;;8.00;99.90;;;;;;5076745;28;20050;-65
2022/09/28 01:53:15;;;;;;;5.35;3.85;;;7.70;99.90;;;;;;5076107;28;20106;-66
2022/09/28 01:55:49;;;;;;;7.72;5.05;;;7.60;99.90;;;;;;5076117;28;20051;-66
2022/09/28 01:58:21;;;;;;;7.20;4.85;;;7.60;99.90;;;;;;5076464;28;20127;-66
2022/09/28 02:00:52;;;;;;;8.27;5.30;;;7.60;99.90;;;;;;5058007;28;20052;-66
2022/09/28 02:03:35;;;;;;;6.82;4.70;;;7.60;99.90;;;;;;5076197;28;20195;-66
2022/09/28 02:06:07;;;;;;;6.10;3.70;;;7.60;99.90;;;;;;5075938;28;20477;-66
2022/09/28 02:08:41;;;;;;;5.85;4.10;;;7.60;99.90;;;;;;5075817;28;20045;-66
2022/09/28 02:11:17;;;;;;;6.55;4.20;;;7.70;99.90;;;;;;5076172;28;20064;-66
2022/09/28 02:13:51;;;;;;;6.15;4.30;;;7.50;99.90;;;;;;5074622;28;20052;-66
2022/09/28 02:16:39;;;;;;;5.32;3.67;;;7.50;99.90;;;;;;5075530;28;20056;-66
2022/09/28 02:19:17;;;;;;;6.60;3.90;;;7.40;99.90;;;;;;5075600;28;20053;-66
2022/09/28 02:21:56;;;;;;;5.53;3.60;;;7.40;99.90;;;;;;5075680;28;20048;-66
2022/09/28 02:24:29;;;;;;;5.05;3.50;;;7.40;99.90;;;;;;5075546;28;20044;-66
2022/09/28 02:26:59;;;;;;;6.15;3.95;;;7.40;99.90;;;;;;5075057;28;20462;-66
2022/09/28 02:29:25;;;;;;;4.82;3.75;;;7.30;99.90;;;;;;5073099;28;20080;-66
2022/09/28 02:31:51;;;;;;;5.18;3.78;;;7.30;99.90;;;;;;5075305;28;20228;-66
2022/09/28 02:34:17;;;;;;;6.18;3.63;;;7.30;99.90;;;;;;5076061;28;20076;-66
2022/09/28 02:36:44;;;;;;;5.60;4.00;;;7.20;99.90;;;;;;5075854;28;20474;-66
2022/09/28 02:39:17;;;;;;;5.90;3.72;;;7.30;99.90;;;;;;5075395;28;20044;-66
2022/09/28 02:42:08;;;;;;;11.50;3.80;;;7.10;99.90;;;;;;5075030;28;20386;-66
2022/09/28 02:45:01;;;;;;;5.07;3.20;;;7.10;99.90;;;;;;5075715;28;20048;-66
2022/09/28 02:47:42;;;;;;;8.38;3.33;;;7.00;99.90;;;;;;5075748;28;20046;-66
2022/09/28 02:50:43;;;;;;;12.80;3.80;;;7.00;99.90;;;;;;5075935;28;20063;-66
2022/09/28 02:53:17;;;;;;;31.08;4.75;;;7.10;99.90;;;;;;5033230;28;20053;-66
2022/09/28 02:55:46;;;;;;;9.40;3.08;;;7.00;99.90;;;;;;5068322;28;20097;-66
2022/09/28 02:58:38;;;;;;;8.88;2.90;;;6.90;99.90;;;;;;5074794;28;20437;-68
2022/09/28 03:01:18;;;;;;;13.60;4.85;;;6.90;99.90;;;;;;5075329;28;20393;-66
2022/09/28 03:03:54;;;;;;;16.50;3.60;;;6.90;99.90;;;;;;5075235;28;20427;-66
2022/09/28 03:06:32;;;;;;;5.55;3.00;;;6.90;99.90;;;;;;5074776;28;20056;-66
2022/09/28 03:09:04;;;;;;;12.57;3.28;;;6.90;99.90;;;;;;5074763;28;20080;-66
2022/09/28 03:11:44;;;;;;;20.17;3.95;;;6.80;99.90;;;;;;5074410;28;20088;-66
2022/09/28 03:14:10;;;;;;;18.48;3.83;;;6.80;99.90;;;;;;5075376;28;20443;-67
2022/09/28 03:16:36;;;;;;;12.63;3.67;;;6.80;99.90;;;;;;5074570;28;20048;-66
2022/09/28 03:19:01;;;;;;;16.38;2.80;;;6.70;99.90;;;;;;5074421;28;20101;-66
2022/09/28 03:21:27;;;;;;;13.38;3.20;;;6.60;99.90;;;;;;5074493;28;20186;-66
2022/09/28 03:23:53;;;;;;;23.70;3.55;;;6.60;99.90;;;;;;5074399;28;20595;-66
2022/09/28 03:26:18;;;;;;;27.48;3.95;;;6.40;99.90;;;;;;5074839;28;20040;-66
2022/09/28 03:28:44;;;;;;;29.13;4.75;;;6.40;99.90;;;;;;5074191;28;20358;-66
2022/09/28 03:31:10;;;;;;;38.30;4.75;;;6.40;99.90;;;;;;5074678;28;20094;-66
2022/09/28 03:33:36;;;;;;;32.83;4.55;;;6.40;99.90;;;;;;5074095;28;20049;-66
2022/09/28 03:36:01;;;;;;;13.68;2.83;;;6.40;99.90;;;;;;5074038;28;20045;-66
2022/09/28 03:38:27;;;;;;;11.90;3.25;;;6.40;99.90;;;;;;5074363;28;20406;-67
2022/09/28 03:40:57;;;;;;;32.05;4.45;;;6.40;99.90;;;;;;5074268;28;20136;-66
2022/09/28 03:43:24;;;;;;;16.85;3.53;;;6.30;99.90;;;;;;5074728;28;20123;-66
2022/09/28 03:45:58;;;;;;;8.18;2.65;;;6.20;99.90;;;;;;5073950;28;20048;-67
2022/09/28 03:48:26;;;;;;;13.73;2.92;;;6.20;99.90;;;;;;5074516;28;20041;-67
2022/09/28 03:50:53;;;;;;;9.27;2.45;;;6.20;99.90;;;;;;5073899;28;20047;-67
2022/09/28 03:53:19;;;;;;;30.10;5.20;;;6.20;99.90;;;;;;5073788;28;20059;-67
2022/09/28 03:55:45;;;;;;;34.75;4.35;;;6.30;99.90;;;;;;5074297;28;20048;-67
2022/09/28 03:58:10;;;;;;;32.65;4.78;;;6.30;99.90;;;;;;5073605;28;20128;-67
2022/09/28 04:00:39;;;;;;;7.97;2.65;;;6.30;99.90;;;;;;5074136;28;20044;-67
2022/09/28 04:03:04;;;;;;;5.40;2.50;;;6.10;99.90;;;;;;5073493;28;20052;-67
2022/09/28 04:05:30;;;;;;;7.57;2.88;;;6.10;99.90;;;;;;5073628;28;20052;-67
2022/09/28 04:07:56;;;;;;;31.10;4.70;;;6.00;99.90;;;;;;5073824;28;20047;-67
2022/09/28 04:10:25;;;;;;;38.42;5.50;;;6.00;99.90;;;;;;5073370;28;20056;-67
2022/09/28 04:12:55;;;;;;;49.13;6.82;;;6.00;99.90;;;;;;5073822;28;20063;-67
2022/09/28 04:15:22;;;;;;;73.88;8.10;;;6.20;99.90;;;;;;5073536;28;20052;-67
2022/09/28 04:17:48;;;;;;;39.67;5.05;;;6.00;99.90;;;;;;5073470;28;20059;-67
2022/09/28 04:20:13;;;;;;;8.77;2.70;;;5.80;99.90;;;;;;5073797;28;20048;-67
2022/09/28 04:22:39;;;;;;;2.97;2.17;;;5.90;99.90;;;;;;5073411;28;20048;-67
2022/09/28 04:25:06;;;;;;;4.43;2.90;;;5.80;99.90;;;;;;5073292;28;20095;-67
2022/09/28 04:30:16;;;;;;;39.45;6.93;;;5.90;99.90;;;;;;5073620;28;20056;-66
2022/09/28 04:32:41;;;;;;;81.32;10.02;;;5.90;99.90;;;;;;5073755;28;20362;-66
2022/09/28 04:35:10;;;;;;;64.40;9.13;;;5.90;99.90;;;;;;5073277;28;20098;-66
2022/09/28 04:37:35;;;;;;;47.15;8.05;;;6.00;99.90;;;;;;5072202;28;20060;-66
2022/09/28 04:40:01;;;;;;;97.35;11.43;;;6.10;99.90;;;;;;5073597;28;20047;-65
2022/09/28 04:42:27;;;;;;;150.13;14.60;;;6.10;99.90;;;;;;5073204;28;20044;-65
2022/09/28 04:44:52;;;;;;;91.45;12.38;;;6.20;99.90;;;;;;5073144;28;20481;-65
2022/09/28 04:47:18;;;;;;;53.03;10.25;;;6.20;99.90;;;;;;5073119;28;20101;-66
2022/09/28 04:49:43;;;;;;;39.45;6.60;;;6.20;99.90;;;;;;5073123;28;20078;-66
2022/09/28 04:52:09;;;;;;;34.75;6.90;;;6.40;99.90;;;;;;5073060;28;20056;-67
2022/09/28 04:54:35;;;;;;;20.10;5.90;;;6.20;99.90;;;;;;5077577;28;20059;-66
2022/09/28 04:57:02;;;;;;;19.38;5.53;;;6.20;99.90;;;;;;5077259;28;20523;-66
2022/09/28 04:59:27;;;;;;;28.35;6.47;;;6.10;99.90;;;;;;5077579;28;20078;-67
2022/09/28 05:01:53;;;;;;;77.80;9.05;;;6.10;99.90;;;;;;5077049;28;20048;-66
2022/09/28 05:04:19;;;;;;;35.08;6.45;;;6.10;99.90;;;;;;5076115;28;20165;-66
2022/09/28 05:06:44;;;;;;;67.80;10.48;;;6.10;99.90;;;;;;5077780;28;20045;-66
2022/09/28 05:09:10;;;;;;;20.83;6.22;;;6.10;99.90;;;;;;5077175;28;20374;-66
2022/09/28 05:11:36;;;;;;;59.80;8.70;;;6.50;99.90;;;;;;5076726;28;20396;-66
2022/09/28 05:14:01;;;;;;;43.10;8.00;;;6.10;99.90;;;;;;5077153;28;20374;-64
2022/09/28 05:16:29;;;;;;;56.78;7.95;;;6.10;99.90;;;;;;5076859;28;20059;-65
2022/09/28 05:18:55;;;;;;;26.33;7.65;;;6.20;99.90;;;;;;5076700;28;20094;-64
2022/09/28 05:21:24;;;;;;;67.18;8.50;;;6.30;99.90;;;;;;5075715;28;20059;-65
2022/09/28 05:23:50;;;;;;;31.15;7.57;;;6.20;99.90;;;;;;5075724;28;20048;-65
2022/09/28 05:26:16;;;;;;;36.13;7.03;;;6.20;99.90;;;;;;5077348;28;20385;-64
2022/09/28 05:28:43;;;;;;;36.65;7.53;;;6.20;99.90;;;;;;5076860;28;20036;-65
2022/09/28 05:31:09;;;;;;;35.38;7.25;;;6.20;99.90;;;;;;5076456;28;20059;-65
2022/09/28 05:33:36;;;;;;;69.20;9.43;;;6.20;99.90;;;;;;5076414;28;20473;-65
2022/09/28 05:36:02;;;;;;;107.63;13.52;;;6.30;99.90;;;;;;5076661;28;20390;-65
2022/09/28 05:38:28;;;;;;;37.85;8.43;;;6.30;99.90;;;;;;5075955;28;20462;-65
2022/09/28 05:40:54;;;;;;;53.42;9.45;;;6.40;99.90;;;;;;5075710;28;20125;-65
2022/09/28 05:43:20;;;;;;;102.97;12.23;;;6.40;99.90;;;;;;5076068;28;20141;-65
2022/09/28 05:45:46;;;;;;;70.82;11.15;;;6.40;99.90;;;;;;5075955;28;20054;-65
2022/09/28 05:48:12;;;;;;;85.47;13.80;;;6.40;99.90;;;;;;5074934;28;20094;-65
2022/09/28 05:50:38;;;;;;;46.47;8.45;;;6.50;99.90;;;;;;5075054;28;20148;-65
2022/09/28 05:53:07;;;;;;;96.15;17.80;;;6.50;99.90;;;;;;5076046;28;20040;-66
2022/09/28 05:55:33;;;;;;;73.57;10.98;;;6.50;99.90;;;;;;5076015;28;20186;-65
2022/09/28 05:58:04;;;;;;;70.95;11.05;;;6.50;99.90;;;;;;5076486;28;20404;-66
2022/09/28 06:00:33;;;;;;;53.63;10.45;;;6.60;99.90;;;;;;5075986;28;20040;-65
2022/09/28 06:03:04;;;;;;;44.65;9.23;;;6.70;99.90;;;;;;5075083;28;20385;-66
2022/09/28 06:05:31;;;;;;;104.95;14.55;;;6.60;99.90;;;;;;5076104;28;20064;-66
2022/09/28 06:08:00;;;;;;;59.22;9.35;;;6.70;99.90;;;;;;5075782;28;20401;-66
2022/09/28 06:10:26;;;;;;;50.55;8.32;;;6.60;99.90;;;;;;5075856;28;20153;-66
2022/09/28 06:12:56;;;;;;;67.40;11.38;;;6.60;99.90;;;;;;5075797;28;20052;-61
2022/09/28 06:15:24;;;;;;;65.28;9.85;;;6.70;99.90;;;;;;5075018;28;20047;-61
2022/09/28 06:18:04;;;;;;;72.63;11.18;;;6.70;99.90;;;;;;5075586;28;20048;-61
2022/09/28 06:20:36;;;;;;;59.78;10.23;;;6.70;99.90;;;;;;5075681;28;20105;-61
2022/09/28 06:23:01;;;;;;;54.10;9.00;;;6.80;99.90;;;;;;5075190;28;20591;-61
2022/09/28 06:25:27;;;;;;;38.78;7.60;;;6.80;99.90;;;;;;5075537;28;20131;-60
2022/09/28 06:27:58;;;;;;;59.25;9.50;;;6.80;99.90;;;;;;5076179;28;20056;-61
2022/09/28 06:30:25;;;;;;;44.40;7.97;;;6.80;99.90;;;;;;5075436;28;20055;-61
2022/09/28 06:32:56;;;;;;;58.28;9.15;;;6.80;99.90;;;;;;5075911;28;20071;-61
2022/09/28 06:35:24;;;;;;;44.10;8.40;;;6.90;99.90;;;;;;5075369;28;20055;-61
2022/09/28 06:37:50;;;;;;;34.33;8.02;;;6.90;99.90;;;;;;5074368;28;20053;-62
2022/09/28 06:40:17;;;;;;;44.65;8.52;;;6.80;99.90;;;;;;5075215;28;20177;-61
2022/09/28 06:42:42;;;;;;;42.53;8.48;;;6.90;99.90;;;;;;5074968;28;20044;-61
2022/09/28 06:45:09;;;;;;;35.10;7.03;;;6.90;99.90;;;;;;5074799;28;20056;-61
2022/09/28 06:47:36;;;;;;;38.05;8.07;;;6.90;99.90;;;;;;5075018;28;20144;-61
2022/09/28 06:50:09;;;;;;;32.55;8.20;;;6.90;99.90;;;;;;5075031;28;20037;-61
2022/09/28 06:52:35;;;;;;;25.00;6.28;;;7.00;99.90;;;;;;5075332;28;20458;-61
2022/09/28 06:55:01;;;;;;;34.83;7.60;;;7.10;99.90;;;;;;5075337;28;20141;-61
2022/09/28 06:57:26;;;;;;;40.90;8.27;;;7.00;99.90;;;;;;5074991;28;20044;-61
2022/09/28 06:59:52;;;;;;;24.10;6.75;;;7.10;99.90;;;;;;5075557;28;20375;-61
2022/09/28 07:02:18;;;;;;;58.38;9.43;;;7.20;99.90;;;;;;5075057;28;20053;-61
2022/09/28 07:04:44;;;;;;;50.78;8.73;;;7.10;99.90;;;;;;5075348;28;20045;-61
2022/09/28 07:07:10;;;;;;;31.38;7.18;;;7.10;99.90;;;;;;5074767;28;20049;-61
2022/09/28 07:09:36;;;;;;;16.45;5.07;;;7.00;99.90;;;;;;5074684;28;20076;-62
2022/09/28 07:12:09;;;;;;;29.73;7.00;;;7.00;99.90;;;;;;5056495;28;20149;-67
2022/09/28 07:14:35;;;;;;;30.85;7.85;;;7.00;99.90;;;;;;5074074;28;20052;-67
2022/09/28 07:17:02;;;;;;;28.10;5.75;;;7.10;99.90;;;;;;5073761;28;20450;-67
2022/09/28 07:19:27;;;;;;;33.17;7.15;;;7.10;99.90;;;;;;5073222;28;20102;-66
2022/09/28 07:21:53;;;;;;;38.08;7.35;;;7.20;99.90;;;;;;5074422;28;20052;-66
2022/09/28 07:24:19;;;;;;;23.88;6.55;;;7.20;99.90;;;;;;5074901;28;20040;-66
2022/09/28 07:26:44;;;;;;;21.80;6.00;;;7.20;99.90;;;;;;5074163;28;20081;-66
2022/09/28 07:29:12;;;;;;;24.13;5.72;;;7.30;99.90;;;;;;5073169;28;20056;-66
2022/09/28 07:31:38;;;;;;;20.15;5.53;;;7.30;99.90;;;;;;5072929;28;20106;-66
2022/09/28 07:34:04;;;;;;;18.50;6.10;;;7.40;99.90;;;;;;5072969;28;20063;-66
2022/09/28 07:36:33;;;;;;;18.35;6.03;;;7.40;99.90;;;;;;5074151;28;20044;-66
2022/09/28 07:39:00;;;;;;;28.83;6.05;;;7.40;99.90;;;;;;5074771;28;20112;-65
2022/09/28 07:41:31;;;;;;;30.40;7.15;;;7.40;99.90;;;;;;5073790;28;20515;-66
2022/09/28 07:44:04;;;;;;;19.80;5.93;;;7.60;99.90;;;;;;5074571;28;20041;-66
2022/09/28 07:46:34;;;;;;;16.13;5.80;;;7.50;99.90;;;;;;5074995;28;20482;-65
2022/09/28 07:49:00;;;;;;;11.98;5.50;;;7.60;99.90;;;;;;5074433;28;20037;-66
2022/09/28 07:51:26;;;;;;;23.33;6.70;;;7.60;99.90;;;;;;5073895;28;20044;-67
2022/09/28 07:53:54;;;;;;;24.20;6.93;;;7.70;99.90;;;;;;5072850;28;20055;-67
2022/09/28 07:56:20;;;;;;;17.15;5.30;;;7.80;99.90;;;;;;5073704;28;20099;-66
2022/09/28 07:58:46;;;;;;;11.05;5.25;;;7.90;99.90;;;;;;5073630;28;20134;-66
2022/09/28 08:01:15;;;;;;;7.57;4.43;;;7.90;99.90;;;;;;5072680;28;20105;-67
2022/09/28 08:03:46;;;;;;;7.93;4.50;;;7.90;99.90;;;;;;5073645;28;20581;-67
2022/09/28 08:06:14;;;;;;;8.57;4.93;;;8.00;99.90;;;;;;5073701;28;20048;-66
2022/09/28 08:08:43;;;;;;;10.02;4.68;;;8.00;99.90;;;;;;5073288;28;20555;-66
2022/09/28 08:11:11;;;;;;;9.13;5.22;;;8.10;99.90;;;;;;5073751;28;20107;-67
2022/09/28 08:13:37;;;;;;;14.10;5.03;;;8.10;99.90;;;;;;5073493;28;20130;-67
2022/09/28 08:16:04;;;;;;;8.98;4.90;;;8.20;99.90;;;;;;5074011;28;20131;-66
2022/09/28 08:18:30;;;;;;;10.88;4.53;;;8.20;99.90;;;;;;5073374;28;20047;-66
2022/09/28 08:23:40;;;;;;;6.28;3.67;;;8.30;99.90;;;;;;5073464;28;20052;-65
2022/09/28 08:26:06;;;;;;;9.40;5.05;;;8.30;99.90;;;;;;5072192;28;20059;-66
2022/09/28 08:28:34;;;;;;;8.55;5.15;;;8.30;99.90;;;;;;5073300;28;20110;-66
2022/09/28 08:31:00;;;;;;;7.55;4.00;;;8.30;99.90;;;;;;5073292;28;20405;-66
2022/09/28 08:33:26;;;;;;;7.85;4.28;;;8.40;99.90;;;;;;5072141;28;20084;-66
2022/09/28 08:35:57;;;;;;;7.05;4.45;;;8.40;99.90;;;;;;5073224;28;20044;-65
2022/09/28 08:38:25;;;;;;;7.03;4.32;;;8.40;99.90;;;;;;5073243;28;20048;-66
2022/09/28 08:41:12;;;;;;;6.38;3.80;;;8.40;99.90;;;;;;5073228;28;20060;-66
2022/09/28 08:43:47;;;;;;;8.20;4.70;;;8.50;99.90;;;;;;5073228;28;20084;-65
2022/09/28 08:46:16;;;;;;;8.02;4.68;;;8.50;99.90;;;;;;5072498;28;20044;-65
2022/09/28 08:49:13;;;;;;;7.07;4.60;;;8.50;99.90;;;;;;5072955;28;20049;-66
2022/09/28 08:51:51;;;;;;;9.02;5.03;;;8.50;99.90;;;;;;5067337;28;20052;-67
2022/09/28 08:54:19;;;;;;;8.43;4.53;;;8.60;99.90;;;;;;5072513;28;20396;-67
2022/09/28 08:56:52;;;;;;;9.15;5.00;;;8.80;99.90;;;;;;5073247;28;20443;-66
2022/09/28 08:59:23;;;;;;;8.73;4.68;;;8.90;99.90;;;;;;5072789;28;20106;-65
2022/09/28 09:01:59;;;;;;;7.95;4.38;;;9.00;99.90;;;;;;5073563;28;20055;-66
2022/09/28 09:04:25;;;;;;;11.45;5.30;;;9.20;99.90;;;;;;5072986;28;20045;-66
2022/09/28 09:07:25;;;;;;;7.70;5.00;;;9.30;99.90;;;;;;5073540;28;20052;-66
2022/09/28 09:10:02;;;;;;;8.18;4.78;;;9.40;99.90;;;;;;5073040;28;20120;-66
2022/09/28 09:12:58;;;;;;;6.60;4.32;;;9.60;99.90;;;;;;5073135;28;20052;-64
2022/09/28 09:15:37;;;;;;;6.77;4.53;;;9.60;99.90;;;;;;5072116;28;20056;-64
2022/09/28 09:18:34;;;;;;;7.78;4.65;;;9.70;99.90;;;;;;5073625;28;20286;-64
2022/09/28 09:21:18;;;;;;;7.60;4.63;;;9.90;99.90;;;;;;5073553;28;20523;-64
2022/09/28 09:23:54;;;;;;;6.60;4.00;;;10.00;99.90;;;;;;5072112;28;20049;-65
2022/09/28 09:26:30;;;;;;;6.05;4.32;;;10.20;99.90;;;;;;5073524;28;20051;-65
2022/09/28 09:29:12;;;;;;;7.15;4.40;;;10.40;99.90;;;;;;5073071;28;20089;-65
2022/09/28 09:32:06;;;;;;;5.82;3.88;;;10.50;99.90;;;;;;5073504;28;20045;-66
2022/09/28 09:34:50;;;;;;;5.57;3.50;;;10.50;99.90;;;;;;5073540;28;20392;-66
2022/09/28 09:37:39;;;;;;;6.20;4.07;;;10.50;99.90;;;;;;5073239;28;20055;-66
2022/09/28 09:40:27;;;;;;;5.45;3.53;;;10.60;99.90;;;;;;5076178;28;20047;-66
2022/09/28 09:42:56;;;;;;;5.32;3.33;;;10.60;99.90;;;;;;5075713;28;20413;-65
2022/09/28 09:45:53;;;;;;;5.82;3.47;;;10.60;99.90;;;;;;5076283;28;20127;-66
2022/09/28 09:48:30;;;;;;;5.60;3.60;;;10.90;99.90;;;;;;5073015;28;20493;-66
2022/09/28 09:51:12;;;;;;;5.25;3.20;;;11.00;99.90;;;;;;5076580;28;20048;-65
2022/09/28 09:53:42;;;;;;;4.43;2.80;;;11.20;99.90;;;;;;5076664;28;20127;-65
2022/09/28 09:56:29;;;;;;;4.57;2.55;;;11.20;99.90;;;;;;5076049;28;20094;-65
2022/09/28 09:59:01;;;;;;;4.72;3.00;;;11.30;99.90;;;;;;5075904;28;20091;-65
2022/09/28 10:01:33;;;;;;;6.03;3.42;;;11.40;99.90;;;;;;5076349;28;20072;-62
2022/09/28 10:04:01;;;;;;;4.22;2.95;;;11.60;99.90;;;;;;5076381;28;20048;-60
2022/09/28 10:06:33;;;;;;;3.78;2.78;;;11.70;99.90;;;;;;5076020;28;20480;-62
2022/09/28 10:09:21;;;;;;;4.82;3.55;;;11.80;99.90;;;;;;5076548;28;20105;-62
2022/09/28 10:11:49;;;;;;;4.63;2.72;;;11.70;99.90;;;;;;5075409;28;20060;-62
2022/09/28 10:14:20;;;;;;;5.25;3.00;;;11.70;99.90;;;;;;5075790;28;20090;-62
2022/09/28 10:16:47;;;;;;;4.38;3.00;;;11.70;99.90;;;;;;5075604;28;20075;-63
2022/09/28 10:19:14;;;;;;;3.63;2.50;;;11.70;99.90;;;;;;5076340;28;20400;-61
2022/09/28 10:21:41;;;;;;;4.20;2.63;;;11.60;99.90;;;;;;5075439;28;20389;-61
2022/09/28 10:24:16;;;;;;;4.78;3.15;;;11.70;99.90;;;;;;5075513;28;20508;-61
2022/09/28 10:26:47;;;;;;;5.45;2.80;;;11.70;99.90;;;;;;5075499;28;20135;-61
2022/09/28 10:29:20;;;;;;;3.72;2.53;;;11.80;99.90;;;;;;5075757;28;20465;-62
2022/09/28 10:31:48;;;;;;;4.95;2.95;;;11.80;99.90;;;;;;5075380;28;20087;-62
2022/09/28 10:34:17;;;;;;;3.75;2.47;;;11.90;99.90;;;;;;5075392;28;20054;-61
2022/09/28 10:36:59;;;;;;;4.90;3.13;;;11.80;99.90;;;;;;5075304;28;20040;-62
2022/09/28 10:39:36;;;;;;;4.40;2.85;;;11.50;99.90;;;;;;5075988;28;20040;-61
2022/09/28 10:42:16;;;;;;;4.68;2.92;;;11.30;99.90;;;;;;5076167;28;20041;-62
2022/09/28 10:45:18;;;;;;;4.90;2.95;;;11.20;99.90;;;;;;5075452;28;20441;-62
2022/09/28 10:47:44;;;;;;;3.50;2.33;;;11.20;99.90;;;;;;5074228;28;20053;-62
2022/09/28 10:50:23;;;;;;;3.40;2.00;;;11.40;99.90;;;;;;5074369;28;20075;-61
2022/09/28 10:52:48;;;;;;;3.72;2.42;;;11.40;99.90;;;;;;5074655;28;20486;-61
2022/09/28 10:55:20;;;;;;;4.03;2.20;;;11.30;99.90;;;;;;5074836;28;20036;-62
2022/09/28 10:57:47;;;;;;;4.00;2.08;;;11.40;99.90;;;;;;5074503;28;20054;-62
2022/09/28 11:00:32;;;;;;;3.72;2.17;;;11.60;99.90;;;;;;5074617;28;20131;-62
2022/09/28 11:02:59;;;;;;;4.63;2.63;;;11.90;99.90;;;;;;5074547;28;20049;-61
2022/09/28 11:05:26;;;;;;;3.95;2.45;;;12.10;99.90;;;;;;5074571;28;20127;-61
2022/09/28 11:07:54;;;;;;;5.03;2.90;;;12.30;99.90;;;;;;5074659;28;20044;-63
2022/09/28 11:10:27;;;;;;;4.05;2.40;;;12.40;99.90;;;;;;5074373;28;20105;-61
2022/09/28 11:12:53;;;;;;;5.15;2.53;;;12.50;99.90;;;;;;5074693;28;20087;-62
2022/09/28 11:15:24;;;;;;;4.15;2.67;;;12.50;99.90;;;;;;5075288;28;20182;-62
2022/09/28 11:17:50;;;;;;;4.85;2.78;;;12.60;99.90;;;;;;5075102;28;20049;-62
2022/09/28 11:20:24;;;;;;;4.43;2.35;;;12.70;99.90;;;;;;5073164;28;20044;-62
2022/09/28 11:22:50;;;;;;;4.43;2.47;;;12.70;99.90;;;;;;5074461;28;20141;-62
2022/09/28 11:25:16;;;;;;;4.55;2.88;;;12.50;99.90;;;;;;5073196;28;20040;-62
2022/09/28 11:27:57;;;;;;;4.07;2.60;;;12.50;99.90;;;;;;5074260;28;20050;-62
2022/09/28 11:30:32;;;;;;;4.05;2.60;;;12.40;99.90;;;;;;5073979;28;20052;-62
2022/09/28 11:33:06;;;;;;;4.20;2.45;;;12.40;99.90;;;;;;5074910;28;20071;-63
2022/09/28 11:35:45;;;;;;;4.72;2.60;;;12.40;99.90;;;;;;5074710;28;20044;-62
2022/09/28 11:38:30;;;;;;;4.90;2.67;;;12.40;99.90;;;;;;5072706;28;20044;-62
2022/09/28 11:41:23;;;;;;;4.07;2.47;;;12.40;99.90;;;;;;5074109;28;20135;-62
2022/09/28 11:44:13;;;;;;;3.58;2.30;;;12.60;99.90;;;;;;5072690;28;20054;-62
2022/09/28 11:46:49;;;;;;;2.90;1.90;;;12.70;99.90;;;;;;5073953;28;20048;-62
2022/09/28 11:49:29;;;;;;;4.65;2.03;;;12.70;99.90;;;;;;5074264;28;20051;-62
2022/09/28 11:52:00;;;;;;;4.32;2.60;;;12.60;99.90;;;;;;5074310;28;20059;-62
2022/09/28 11:54:40;;;;;;;5.18;2.60;;;12.60;99.90;;;;;;5072876;28;20057;-62
2022/09/28 11:57:20;;;;;;;4.47;2.50;;;12.70;99.90;;;;;;5073756;28;20059;-61
2022/09/28 11:59:59;;;;;;;4.40;2.90;;;12.80;99.90;;;;;;5074142;28;20041;-61
2022/09/28 12:02:40;;;;;;;3.53;2.55;;;12.90;99.90;;;;;;5073535;28;20401;-61
2022/09/28 12:05:15;;;;;;;4.93;2.35;;;12.90;99.90;;;;;;5073576;28;20145;-61
2022/09/28 12:08:19;;;;;;;3.90;2.50;;;12.90;99.90;;;;;;5073455;28;20044;-61
2022/09/28 12:11:09;;;;;;;4.32;2.78;;;12.90;99.90;;;;;;5031045;28;20061;-62
2022/09/28 12:13:43;;;;;;;3.40;2.28;;;13.00;99.90;;;;;;5030885;28;20050;-61
2022/09/28 12:16:30;;;;;;;3.95;2.38;;;13.00;99.90;;;;;;5060335;28;20512;-61
2022/09/28 12:19:01;;;;;;;;;;;13.10;99.90;;;;;;5073657;28;20051;-61
2022/09/28 12:21:35;;;;;;;4.18;2.17;;;13.10;99.90;;;;;;5073773;28;20301;-61
2022/09/28 12:24:14;;;;;;;4.88;2.63;;;13.20;99.90;;;;;;5073226;28;20048;-61
2022/09/28 12:26:43;;;;;;;3.75;2.50;;;13.20;99.90;;;;;;5073915;28;20055;-61
2022/09/28 12:29:21;;;;;;;3.53;2.13;;;13.20;99.90;;;;;;5073311;28;20127;-62
2022/09/28 12:32:10;;;;;;;3.63;1.85;;;13.10;99.90;;;;;;5073211;28;20102;-62
2022/09/28 12:34:35;;;;;;;3.08;1.90;;;13.00;99.90;;;;;;5072915;28;20136;-61
2022/09/28 12:37:23;;;;;;;2.40;1.60;;;12.90;99.90;;;;;;5073868;28;20136;-62
2022/09/28 12:40:23;;;;;;;2.40;1.40;;;13.00;99.90;;;;;;5073686;28;20054;-62
2022/09/28 12:43:24;;;;;;;2.47;1.58;;;13.00;99.90;;;;;;5073488;28;20481;-62
2022/09/28 12:46:24;;;;;;;2.80;1.73;;;13.00;99.90;;;;;;5073466;28;20040;-62
2022/09/28 12:49:12;;;;;;;3.00;1.90;;;13.10;99.90;;;;;;5073207;28;20084;-62
2022/09/28 12:51:58;;;;;;;3.70;1.80;;;13.10;99.90;;;;;;5073641;28;20170;-61
2022/09/28 12:54:52;;;;;;;2.40;1.30;;;13.10;99.90;;;;;;5073534;28;20045;-61
2022/09/28 12:57:18;;;;;;;2.35;1.38;;;13.10;99.90;;;;;;5073911;28;20083;-61
2022/09/28 13:00:04;;;;;;;2.05;1.00;;;13.10;99.90;;;;;;5073359;28;20504;-62
2022/09/28 13:02:50;;;;;;;2.40;1.20;;;13.20;99.90;;;;;;5073503;28;20442;-62
2022/09/28 13:05:43;;;;;;;1.98;1.10;;;13.30;99.90;;;;;;5073059;28;20127;-63
2022/09/28 13:08:17;;;;;;;2.85;1.50;;;13.40;99.90;;;;;;5072954;28;20116;-63
2022/09/28 13:10:58;;;;;;;1.85;1.20;;;13.50;99.90;;;;;;5071604;28;20144;-62
2022/09/28 13:14:00;;;;;;;2.30;1.25;;;13.60;99.90;;;;;;5073922;28;20491;-62
2022/09/28 13:16:51;;;;;;;9.23;1.80;;;13.70;99.90;;;;;;5076913;28;20473;-63
2022/09/28 13:19:36;;;;;;;1.95;1.00;;;13.70;99.90;;;;;;5071611;28;20140;-63
2022/09/28 13:22:08;;;;;;;2.15;1.00;;;13.70;99.90;;;;;;5077192;28;20055;-62
2022/09/28 13:24:37;;;;;;;1.83;1.00;;;13.70;99.90;;;;;;5076676;28;20044;-62